Sardinia Regina — IBMS — position and weather

sailwx.info

Track history (hours):
 
Tides and Currents Weather Stations Pressure Air Temp Water Temp Dewpoint Dewpoint Depression Visibility Wind Speed Wind Dir Waves Ship Positions

Sardinia Regina

Last reported at 2014-Nov-23 18:31 UTC. Time now 2014-Nov-23 18:49 UTC.
Position N 40°60' E 009°37'.

Length 146 m; draft 5 m.

Type: Passenger vessel. MMSI: 247079000.

Date/timePositionNaut miles runAvg speedWind from/ knotsBaromVisibWave heightAir tempDewpointWater temp
2014-Nov-23 18:31N 40°60' E 009°37'0 0.0
2014-Nov-23 17:23N 40°60' E 009°37'0 0.0
2014-Nov-23 16:33N 40°60' E 009°37'0 0.0
2014-Nov-23 15:33N 40°60' E 009°37'0 0.0
2014-Nov-23 14:32N 40°60' E 009°37'0 0.0
2014-Nov-23 13:32N 40°60' E 009°37'0 0.0
2014-Nov-23 08:10N 40°60' E 009°37'0 0.0
2014-Nov-23 07:32N 40°60' E 009°37'4 3.5
2014-Nov-23 06:30N 41°01' E 009°42'13314.8
2014-Nov-22 21:32N 43°13' E 010°05'1515.4
2014-Nov-22 20:33N 43°28' E 010°11'8 7.6
2014-Nov-22 19:33N 43°33' E 010°18'0 0.0
2014-Nov-22 18:33N 43°33' E 010°18'0 0.0
2014-Nov-22 17:33N 43°33' E 010°18'0 0.0
2014-Nov-22 16:33N 43°33' E 010°18'0 0.0
2014-Nov-22 15:33N 43°33' E 010°18'0 0.0
2014-Nov-22 14:33N 43°33' E 010°18'0 0.0
2014-Nov-22 13:33N 43°33' E 010°18'0 0.0
2014-Nov-22 12:33N 43°33' E 010°18'0 0.0
2014-Nov-22 11:33N 43°33' E 010°18'0 0.0
2014-Nov-22 10:33N 43°33' E 010°18'0 0.0
2014-Nov-22 09:33N 43°33' E 010°18'0 0.0
2014-Nov-22 08:33N 43°33' E 010°18'0 0.0
2014-Nov-22 07:33N 43°33' E 010°18'0 0.0
2014-Nov-22 06:33N 43°33' E 010°18'7 7.0
2014-Nov-22 05:34N 43°27' E 010°13'1515.3
2014-Nov-22 04:34N 43°13' E 010°07'13514.6
2014-Nov-21 19:18N 40°59' E 009°40'2 0.2
2014-Nov-21 06:20N 40°60' E 009°37'4 5.1
2014-Nov-21 05:32N 41°02' E 009°41'12517.4
2014-Nov-20 22:21N 43°07' E 010°03'1417.5
2014-Nov-20 21:34N 43°20' E 010°07'1514.8
2014-Nov-20 20:33N 43°33' E 010°18'0 0.4
2014-Nov-20 19:33N 43°33' E 010°18'0 0.0
2014-Nov-20 18:33N 43°33' E 010°18'1 1.4
2014-Nov-20 17:33N 43°32' E 010°17'1212.4
2014-Nov-20 16:33N 43°21' E 010°09'1313.3
2014-Nov-20 15:33N 43°08' E 010°03'18 3.5
2014-Nov-20 10:18N 42°54' E 009°47'1215.7
2014-Nov-20 09:33N 43°03' E 009°59'1716.7
2014-Nov-20 08:33N 43°18' E 010°06'1515.5
2014-Nov-20 07:33N 43°32' E 010°16'2 1.6
2014-Nov-20 06:33N 43°33' E 010°18'1 1.0
2014-Nov-20 05:33N 43°32' E 010°17'1212.4
2014-Nov-20 04:33N 43°21' E 010°11'1413.7
2014-Nov-20 03:33N 43°08' E 010°06'13015.6
2014-Nov-19 19:14N 40°59' E 009°40'2 0.2
2014-Nov-19 07:33N 40°59' E 009°37'1 0.7
2014-Nov-19 06:34N 40°59' E 009°38'12616.9
2014-Nov-18 23:04N 43°04' E 010°02'815.6
2014-Nov-18 22:33N 43°11' E 010°05'1514.6
2014-Nov-18 21:33N 43°25' E 010°11'9 9.2
2014-Nov-18 20:33N 43°33' E 010°18'0 0.0
2014-Nov-18 19:33N 43°33' E 010°18'0 0.0
2014-Nov-18 18:33N 43°33' E 010°18'1 1.3
2014-Nov-18 17:33N 43°32' E 010°17'1313.3
2014-Nov-18 16:33N 43°23' E 010°03'1514.8
2014-Nov-18 15:33N 43°13' E 009°48'19 3.8
2014-Nov-18 10:33N 42°54' E 009°49'1615.8
2014-Nov-18 09:33N 43°07' E 010°02'1514.9
2014-Nov-18 08:33N 43°21' E 010°08'1313.0
2014-Nov-18 07:34N 43°32' E 010°17'1 0.9
2014-Nov-18 06:33N 43°33' E 010°18'0 0.5
2014-Nov-18 05:34N 43°33' E 010°17'1514.5
2014-Nov-18 04:33N 43°22' E 010°03'1716.9
2014-Nov-18 03:33N 43°10' E 009°47'13016.0
2014-Nov-17 19:25N 41°00' E 009°42'3 3.8
2014-Nov-17 18:33N 40°60' E 009°37'0 0.0
2014-Nov-17 17:34N 40°60' E 009°37'0 0.0
2014-Nov-17 16:26N 40°60' E 009°37'0 0.0
2014-Nov-17 15:34N 40°60' E 009°37'0 0.0
2014-Nov-17 14:31N 40°60' E 009°37'0 0.0
2014-Nov-17 13:22N 40°60' E 009°37'0 0.0
2014-Nov-17 12:27N 40°60' E 009°37'0 0.0
2014-Nov-17 11:33N 40°60' E 009°37'0 0.0
2014-Nov-17 10:33N 40°60' E 009°37'0 0.5
2014-Nov-17 09:33N 40°59' E 009°37'0 0.4
2014-Nov-17 08:33N 40°60' E 009°37'0 0.0
2014-Nov-17 07:31N 40°60' E 009°37'0 0.0
2014-Nov-17 06:33N 40°60' E 009°37'3 3.1
2014-Nov-17 05:33N 41°01' E 009°41'12416.7
2014-Nov-16 22:06N 43°04' E 010°03'917.1
2014-Nov-16 21:33N 43°13' E 010°06'1717.0
2014-Nov-16 20:33N 43°30' E 010°13'5 5.4
2014-Nov-16 19:33N 43°33' E 010°18'0 0.0
2014-Nov-16 18:33N 43°33' E 010°18'0 0.0
2014-Nov-16 17:33N 43°33' E 010°18'0 0.0
2014-Nov-16 16:33N 43°33' E 010°18'0 0.0
2014-Nov-16 15:33N 43°33' E 010°18'0 0.0
2014-Nov-16 14:33N 43°33' E 010°18'0 0.0
2014-Nov-16 13:33N 43°33' E 010°18'0 0.0
2014-Nov-16 12:33N 43°33' E 010°18'0 0.0
2014-Nov-16 11:33N 43°33' E 010°18'0 0.0
2014-Nov-16 10:33N 43°33' E 010°18'0 0.0
2014-Nov-16 07:33N 43°33' E 010°18'6 5.9
2014-Nov-16 06:33N 43°29' E 010°13'1514.7
2014-Nov-16 05:33N 43°19' E 009°58'1312.2
2014-Nov-16 04:28N 43°10' E 009°44'13014.3
2014-Nov-15 19:25N 41°00' E 009°42'3 3.7
2014-Nov-15 18:32N 40°60' E 009°37'0 0.0
2014-Nov-15 17:31N 40°60' E 009°37'0 0.0
2014-Nov-15 16:31N 40°60' E 009°37'0 0.0
2014-Nov-15 15:33N 40°60' E 009°37'0 0.0
2014-Nov-15 14:33N 40°60' E 009°37'0 0.0
2014-Nov-15 13:33N 40°60' E 009°37'0 0.0
2014-Nov-15 12:26N 40°60' E 009°37'0 0.0
2014-Nov-15 11:31N 40°60' E 009°37'0 0.0
2014-Nov-15 10:33N 40°60' E 009°37'0 0.0
2014-Nov-15 09:33N 40°60' E 009°37'0 0.0
2014-Nov-15 08:33N 40°60' E 009°37'0 0.0
2014-Nov-15 07:08N 40°60' E 009°37'0 0.0
2014-Nov-15 06:33N 40°60' E 009°37'12916.1
2014-Nov-14 22:33N 43°07' E 010°04'1717.0
2014-Nov-14 21:34N 43°23' E 010°10'1211.9
2014-Nov-14 20:33N 43°33' E 010°18'0 0.0
2014-Nov-14 19:33N 43°33' E 010°18'0 0.0
2014-Nov-14 18:33N 43°33' E 010°18'2 1.6
2014-Nov-14 17:33N 43°32' E 010°17'1212.3
2014-Nov-14 16:33N 43°21' E 010°09'1413.9
2014-Nov-14 15:33N 43°08' E 010°02'1615.4
2014-Nov-14 14:32N 42°55' E 009°50'2 0.5
2014-Nov-14 10:29N 42°54' E 009°48'1516.3
2014-Nov-14 09:33N 43°06' E 010°00'1616.0
2014-Nov-14 08:33N 43°21' E 010°07'1413.6
2014-Nov-14 07:33N 43°33' E 010°17'1 0.7
2014-Nov-14 06:33N 43°33' E 010°18'1 0.8
2014-Nov-14 05:34N 43°33' E 010°17'1313.1
2014-Nov-14 04:33N 43°21' E 010°10'14215.7
2014-Nov-13 19:33N 41°00' E 009°42'3 3.3
2014-Nov-13 18:33N 40°60' E 009°37'  
Track history (hours):
 
Tides and Currents Weather Stations Pressure Air Temp Water Temp Dewpoint Dewpoint Depression Visibility Wind Speed Wind Dir Waves Ship Positions

Sardinia Regina

Last reported at 2014-Nov-23 18:31 UTC. Time now 2014-Nov-23 18:49 UTC.
Position N 40°60' E 009°37'.

Length 146 m; draft 5 m.

Type: Passenger vessel. MMSI: 247079000.

Date/timePositionNaut miles runAvg speedWind from/ knotsBaromVisibWave heightAir tempDewpointWater temp
2014-Nov-23 18:31N 40°60' E 009°37'0 0.0
2014-Nov-23 17:23N 40°60' E 009°37'0 0.0
2014-Nov-23 16:33N 40°60' E 009°37'0 0.0
2014-Nov-23 15:33N 40°60' E 009°37'0 0.0
2014-Nov-23 14:32N 40°60' E 009°37'0 0.0
2014-Nov-23 13:32N 40°60' E 009°37'0 0.0
2014-Nov-23 08:10N 40°60' E 009°37'0 0.0
2014-Nov-23 07:32N 40°60' E 009°37'4 3.5
2014-Nov-23 06:30N 41°01' E 009°42'13314.8
2014-Nov-22 21:32N 43°13' E 010°05'1515.4
2014-Nov-22 20:33N 43°28' E 010°11'8 7.6
2014-Nov-22 19:33N 43°33' E 010°18'0 0.0
2014-Nov-22 18:33N 43°33' E 010°18'0 0.0
2014-Nov-22 17:33N 43°33' E 010°18'0 0.0
2014-Nov-22 16:33N 43°33' E 010°18'0 0.0
2014-Nov-22 15:33N 43°33' E 010°18'0 0.0
2014-Nov-22 14:33N 43°33' E 010°18'0 0.0
2014-Nov-22 13:33N 43°33' E 010°18'0 0.0
2014-Nov-22 12:33N 43°33' E 010°18'0 0.0
2014-Nov-22 11:33N 43°33' E 010°18'0 0.0
2014-Nov-22 10:33N 43°33' E 010°18'0 0.0
2014-Nov-22 09:33N 43°33' E 010°18'0 0.0
2014-Nov-22 08:33N 43°33' E 010°18'0 0.0
2014-Nov-22 07:33N 43°33' E 010°18'0 0.0
2014-Nov-22 06:33N 43°33' E 010°18'7 7.0
2014-Nov-22 05:34N 43°27' E 010°13'1515.3
2014-Nov-22 04:34N 43°13' E 010°07'13514.6
2014-Nov-21 19:18N 40°59' E 009°40'2 0.2
2014-Nov-21 06:20N 40°60' E 009°37'4 5.1
2014-Nov-21 05:32N 41°02' E 009°41'12517.4
2014-Nov-20 22:21N 43°07' E 010°03'1417.5
2014-Nov-20 21:34N 43°20' E 010°07'1514.8
2014-Nov-20 20:33N 43°33' E 010°18'0 0.4
2014-Nov-20 19:33N 43°33' E 010°18'0 0.0
2014-Nov-20 18:33N 43°33' E 010°18'1 1.4
2014-Nov-20 17:33N 43°32' E 010°17'1212.4
2014-Nov-20 16:33N 43°21' E 010°09'1313.3
2014-Nov-20 15:33N 43°08' E 010°03'18 3.5
2014-Nov-20 10:18N 42°54' E 009°47'1215.7
2014-Nov-20 09:33N 43°03' E 009°59'1716.7
2014-Nov-20 08:33N 43°18' E 010°06'1515.5
2014-Nov-20 07:33N 43°32' E 010°16'2 1.6
2014-Nov-20 06:33N 43°33' E 010°18'1 1.0
2014-Nov-20 05:33N 43°32' E 010°17'1212.4
2014-Nov-20 04:33N 43°21' E 010°11'1413.7
2014-Nov-20 03:33N 43°08' E 010°06'13015.6
2014-Nov-19 19:14N 40°59' E 009°40'2 0.2
2014-Nov-19 07:33N 40°59' E 009°37'1 0.7
2014-Nov-19 06:34N 40°59' E 009°38'12616.9
2014-Nov-18 23:04N 43°04' E 010°02'815.6
2014-Nov-18 22:33N 43°11' E 010°05'1514.6
2014-Nov-18 21:33N 43°25' E 010°11'9 9.2
2014-Nov-18 20:33N 43°33' E 010°18'0 0.0
2014-Nov-18 19:33N 43°33' E 010°18'0 0.0
2014-Nov-18 18:33N 43°33' E 010°18'1 1.3
2014-Nov-18 17:33N 43°32' E 010°17'1313.3
2014-Nov-18 16:33N 43°23' E 010°03'1514.8
2014-Nov-18 15:33N 43°13' E 009°48'19 3.8
2014-Nov-18 10:33N 42°54' E 009°49'1615.8
2014-Nov-18 09:33N 43°07' E 010°02'1514.9
2014-Nov-18 08:33N 43°21' E 010°08'1313.0
2014-Nov-18 07:34N 43°32' E 010°17'1 0.9
2014-Nov-18 06:33N 43°33' E 010°18'0 0.5
2014-Nov-18 05:34N 43°33' E 010°17'1514.5
2014-Nov-18 04:33N 43°22' E 010°03'1716.9
2014-Nov-18 03:33N 43°10' E 009°47'13016.0
2014-Nov-17 19:25N 41°00' E 009°42'3 3.8
2014-Nov-17 18:33N 40°60' E 009°37'0 0.0
2014-Nov-17 17:34N 40°60' E 009°37'0 0.0
2014-Nov-17 16:26N 40°60' E 009°37'0 0.0
2014-Nov-17 15:34N 40°60' E 009°37'0 0.0
2014-Nov-17 14:31N 40°60' E 009°37'0 0.0
2014-Nov-17 13:22N 40°60' E 009°37'0 0.0
2014-Nov-17 12:27N 40°60' E 009°37'0 0.0
2014-Nov-17 11:33N 40°60' E 009°37'0 0.0
2014-Nov-17 10:33N 40°60' E 009°37'0 0.5
2014-Nov-17 09:33N 40°59' E 009°37'0 0.4
2014-Nov-17 08:33N 40°60' E 009°37'0 0.0
2014-Nov-17 07:31N 40°60' E 009°37'0 0.0
2014-Nov-17 06:33N 40°60' E 009°37'3 3.1
2014-Nov-17 05:33N 41°01' E 009°41'12416.7
2014-Nov-16 22:06N 43°04' E 010°03'917.1
2014-Nov-16 21:33N 43°13' E 010°06'1717.0
2014-Nov-16 20:33N 43°30' E 010°13'5 5.4
2014-Nov-16 19:33N 43°33' E 010°18'0 0.0
2014-Nov-16 18:33N 43°33' E 010°18'0 0.0
2014-Nov-16 17:33N 43°33' E 010°18'0 0.0
2014-Nov-16 16:33N 43°33' E 010°18'0 0.0
2014-Nov-16 15:33N 43°33' E 010°18'0 0.0
2014-Nov-16 14:33N 43°33' E 010°18'0 0.0
2014-Nov-16 13:33N 43°33' E 010°18'0 0.0
2014-Nov-16 12:33N 43°33' E 010°18'0 0.0
2014-Nov-16 11:33N 43°33' E 010°18'0 0.0
2014-Nov-16 10:33N 43°33' E 010°18'0 0.0
2014-Nov-16 07:33N 43°33' E 010°18'6 5.9
2014-Nov-16 06:33N 43°29' E 010°13'1514.7
2014-Nov-16 05:33N 43°19' E 009°58'1312.2
2014-Nov-16 04:28N 43°10' E 009°44'13014.3
2014-Nov-15 19:25N 41°00' E 009°42'3 3.7
2014-Nov-15 18:32N 40°60' E 009°37'0 0.0
2014-Nov-15 17:31N 40°60' E 009°37'0 0.0
2014-Nov-15 16:31N 40°60' E 009°37'0 0.0
2014-Nov-15 15:33N 40°60' E 009°37'0 0.0
2014-Nov-15 14:33N 40°60' E 009°37'0 0.0
2014-Nov-15 13:33N 40°60' E 009°37'0 0.0
2014-Nov-15 12:26N 40°60' E 009°37'0 0.0
2014-Nov-15 11:31N 40°60' E 009°37'0 0.0
2014-Nov-15 10:33N 40°60' E 009°37'0 0.0
2014-Nov-15 09:33N 40°60' E 009°37'0 0.0
2014-Nov-15 08:33N 40°60' E 009°37'0 0.0
2014-Nov-15 07:08N 40°60' E 009°37'0 0.0
2014-Nov-15 06:33N 40°60' E 009°37'12916.1
2014-Nov-14 22:33N 43°07' E 010°04'1717.0
2014-Nov-14 21:34N 43°23' E 010°10'1211.9
2014-Nov-14 20:33N 43°33' E 010°18'0 0.0
2014-Nov-14 19:33N 43°33' E 010°18'0 0.0
2014-Nov-14 18:33N 43°33' E 010°18'2 1.6
2014-Nov-14 17:33N 43°32' E 010°17'1212.3
2014-Nov-14 16:33N 43°21' E 010°09'1413.9
2014-Nov-14 15:33N 43°08' E 010°02'1615.4
2014-Nov-14 14:32N 42°55' E 009°50'2 0.5
2014-Nov-14 10:29N 42°54' E 009°48'1516.3
2014-Nov-14 09:33N 43°06' E 010°00'1616.0
2014-Nov-14 08:33N 43°21' E 010°07'1413.6
2014-Nov-14 07:33N 43°33' E 010°17'1 0.7
2014-Nov-14 06:33N 43°33' E 010°18'1 0.8
2014-Nov-14 05:34N 43°33' E 010°17'1313.1
2014-Nov-14 04:33N 43°21' E 010°10'14215.7
2014-Nov-13 19:33N 41°00' E 009°42'3 3.3
2014-Nov-13 18:33N 40°60' E 009°37'  

Dump ship's entire track history